Time;durP1;ratioP1;P1;durP2;ratioP2;P2;SDS_P1;SDS_P2;PMS_P1;PMS_P2;Temp;Humidity;BMP_temperature;BMP_pressure;BME280_temperature;BME280_humidity;BME280_pressure;Samples;Min_cycle;Max_cycle;Signal;HPM_P1;HPM_P2
2022/01/01 00:01:56;;;;;;;39.08;11.05;;;13.10;99.90;;;;;;5075872;28;20090;-79
2022/01/01 00:04:22;;;;;;;48.33;9.60;;;13.10;99.90;;;;;;5074737;28;20040;-78
2022/01/01 00:06:48;;;;;;;31.88;9.18;;;13.20;99.90;;;;;;5075347;28;20032;-78
2022/01/01 00:09:13;;;;;;;38.90;10.30;;;13.10;99.90;;;;;;5075746;28;20066;-77
2022/01/01 00:11:39;;;;;;;43.72;10.38;;;12.90;99.90;;;;;;5075494;28;20028;-78
2022/01/01 00:14:05;;;;;;;36.65;11.40;;;13.00;99.90;;;;;;5075582;28;20055;-79
2022/01/01 00:16:31;;;;;;;37.30;11.55;;;12.90;99.90;;;;;;5075819;28;20486;-79
2022/01/01 00:18:57;;;;;;;42.60;11.27;;;12.90;99.90;;;;;;5075351;28;20071;-78
2022/01/01 00:21:23;;;;;;;34.25;11.32;;;13.00;99.90;;;;;;5075550;28;20033;-78
2022/01/01 00:23:49;;;;;;;37.13;11.93;;;12.90;99.90;;;;;;5075415;28;20024;-79
2022/01/01 00:26:14;;;;;;;39.83;12.57;;;12.90;99.90;;;;;;5075225;28;20516;-79
2022/01/01 00:28:40;;;;;;;50.88;14.27;;;12.80;99.90;;;;;;5075500;28;20024;-79
2022/01/01 00:31:07;;;;;;;41.00;15.52;;;12.80;99.90;;;;;;5074219;28;20631;-79
2022/01/01 00:33:33;;;;;;;52.70;16.58;;;12.80;99.90;;;;;;5075362;28;20082;-79
2022/01/01 00:35:59;;;;;;;44.15;16.77;;;12.70;99.90;;;;;;5075337;28;20040;-78
2022/01/01 00:38:25;;;;;;;48.70;17.95;;;12.70;99.90;;;;;;5075394;28;20024;-79
2022/01/01 00:40:51;;;;;;;52.33;16.60;;;12.70;99.90;;;;;;5074964;28;20028;-79
2022/01/01 00:43:17;;;;;;;49.78;17.67;;;12.70;99.90;;;;;;5075249;28;20032;-76
2022/01/01 00:45:42;;;;;;;51.60;18.88;;;12.50;99.90;;;;;;5075033;28;20028;-78
2022/01/01 00:48:08;;;;;;;44.25;16.77;;;12.50;99.90;;;;;;5075196;28;20089;-78
2022/01/01 00:50:34;;;;;;;51.80;16.98;;;12.50;99.90;;;;;;5074997;28;20090;-79
2022/01/01 00:53:00;;;;;;;46.13;19.00;;;12.50;99.90;;;;;;5075025;28;20024;-78
2022/01/01 00:55:26;;;;;;;43.22;17.25;;;12.50;99.90;;;;;;5074760;28;20032;-78
2022/01/01 00:57:52;;;;;;;46.50;17.77;;;12.50;99.90;;;;;;5074992;28;20037;-79
2022/01/01 01:00:17;;;;;;;43.58;17.70;;;12.40;99.90;;;;;;5073510;28;20028;-79
2022/01/01 01:02:43;;;;;;;40.35;18.40;;;12.40;99.90;;;;;;5075136;28;20558;-78
2022/01/01 01:05:09;;;;;;;37.63;19.05;;;12.40;99.90;;;;;;5074705;28;20051;-78
2022/01/01 01:07:35;;;;;;;45.95;18.70;;;12.40;99.90;;;;;;5075029;28;20051;-78
2022/01/01 01:10:01;;;;;;;41.53;20.15;;;12.40;99.90;;;;;;5074222;28;20078;-77
2022/01/01 01:12:37;;;;;;;39.95;20.65;;;12.50;99.90;;;;;;5074653;28;20043;-78
2022/01/01 01:15:04;;;;;;;39.13;17.52;;;12.50;99.90;;;;;;5074575;28;20090;-78
2022/01/01 01:17:30;;;;;;;36.28;17.55;;;12.50;99.90;;;;;;5074633;28;20436;-78
2022/01/01 01:19:56;;;;;;;36.53;18.63;;;12.60;99.90;;;;;;5074195;28;20121;-78
2022/01/01 01:22:21;;;;;;;39.85;18.77;;;12.60;99.90;;;;;;5074545;28;20056;-78
2022/01/01 01:24:47;;;;;;;36.72;17.50;;;12.50;99.90;;;;;;5074280;28;20036;-79
2022/01/01 01:27:13;;;;;;;41.38;16.92;;;12.50;99.90;;;;;;5074212;28;20025;-79
2022/01/01 01:29:42;;;;;;;35.45;17.20;;;12.50;99.90;;;;;;5074304;28;20067;-78
2022/01/01 01:32:08;;;;;;;36.65;17.25;;;12.50;99.90;;;;;;5074775;28;20226;-78
2022/01/01 01:34:34;;;;;;;35.58;16.50;;;12.60;99.90;;;;;;5074404;28;20033;-78
2022/01/01 01:37:00;;;;;;;35.97;15.65;;;12.60;99.90;;;;;;5074142;28;20021;-76
2022/01/01 01:39:25;;;;;;;33.60;15.65;;;12.50;99.90;;;;;;5073978;28;20040;-78
2022/01/01 01:41:52;;;;;;;34.20;15.80;;;12.50;99.90;;;;;;5073933;28;20037;-79
2022/01/01 01:44:32;;;;;;;32.00;15.05;;;12.50;99.90;;;;;;5074071;28;20036;-78
2022/01/01 01:47:01;;;;;;;33.20;14.63;;;12.60;99.90;;;;;;5073723;28;20024;-78
2022/01/01 01:49:27;;;;;;;33.80;14.73;;;12.70;99.90;;;;;;5074015;28;20396;-78
2022/01/01 01:51:53;;;;;;;32.75;14.85;;;12.60;99.90;;;;;;5073555;28;20035;-79
2022/01/01 01:54:20;;;;;;;35.72;15.38;;;12.60;99.90;;;;;;5073834;28;20554;-78
2022/01/01 01:56:47;;;;;;;36.25;14.75;;;12.70;99.90;;;;;;5073247;28;20113;-79
2022/01/01 01:59:14;;;;;;;37.90;14.38;;;12.80;99.90;;;;;;5073711;28;20033;-77
2022/01/01 02:01:41;;;;;;;26.63;13.05;;;12.80;99.90;;;;;;5073602;28;20040;-78
2022/01/01 02:04:06;;;;;;;26.02;13.00;;;12.80;99.90;;;;;;5073583;28;20101;-78
2022/01/01 02:06:33;;;;;;;21.67;11.82;;;12.90;99.90;;;;;;5072086;28;20477;-78
2022/01/01 02:08:59;;;;;;;30.50;13.68;;;12.80;99.90;;;;;;5073643;28;20024;-78
2022/01/01 02:11:25;;;;;;;30.55;12.45;;;12.90;99.90;;;;;;5073469;28;20017;-78
2022/01/01 02:18:51;;;;;;;27.05;11.77;;;12.90;99.90;;;;;;5073260;28;20428;-78
2022/01/01 02:21:18;;;;;;;24.48;11.57;;;13.00;99.90;;;;;;5072309;28;20032;-78
2022/01/01 02:23:46;;;;;;;31.10;12.48;;;13.00;99.90;;;;;;5072637;28;20109;-78
2022/01/01 02:26:15;;;;;;;29.67;10.65;;;12.90;99.90;;;;;;5072337;28;20389;-78
2022/01/01 02:28:46;;;;;;;22.05;10.85;;;12.90;99.90;;;;;;5072576;28;20056;-78
2022/01/01 02:31:15;;;;;;;24.73;11.05;;;12.90;99.90;;;;;;5071254;28;20119;-79
2022/01/01 02:33:43;;;;;;;26.63;11.32;;;12.90;99.90;;;;;;5072454;28;20021;-78
2022/01/01 02:36:09;;;;;;;28.92;10.23;;;12.90;99.90;;;;;;5072103;28;20031;-79
2022/01/01 02:38:36;;;;;;;28.85;10.50;;;12.80;99.90;;;;;;5072351;28;20457;-79
2022/01/01 02:41:03;;;;;;;27.73;10.68;;;12.90;99.90;;;;;;5072297;28;20044;-79
2022/01/01 02:43:28;;;;;;;26.80;10.88;;;12.90;99.90;;;;;;5072118;28;20024;-79
2022/01/01 02:45:54;;;;;;;21.33;10.15;;;12.80;99.90;;;;;;5072620;28;20025;-78
2022/01/01 02:48:23;;;;;;;29.85;10.88;;;12.80;99.90;;;;;;5072188;28;20537;-78
2022/01/01 02:50:51;;;;;;;28.00;10.68;;;12.80;99.90;;;;;;5071989;28;20028;-79
2022/01/01 02:53:17;;;;;;;31.15;9.90;;;12.70;99.90;;;;;;5072041;28;20095;-79
2022/01/01 02:55:44;;;;;;;31.77;12.23;;;12.80;99.90;;;;;;5072049;28;20036;-79
2022/01/01 02:58:11;;;;;;;23.55;11.02;;;12.90;99.90;;;;;;5071955;28;20404;-78
2022/01/01 03:00:38;;;;;;;35.60;11.45;;;12.80;99.90;;;;;;5072065;28;20565;-79
2022/01/01 03:03:04;;;;;;;31.23;10.85;;;12.90;99.90;;;;;;5071960;28;20025;-78
2022/01/01 03:05:30;;;;;;;22.75;10.77;;;13.00;99.90;;;;;;5071589;28;20380;-79
2022/01/01 03:07:57;;;;;;;20.65;9.38;;;13.10;99.90;;;;;;5070868;28;20477;-78
2022/01/01 03:10:23;;;;;;;28.13;10.20;;;13.10;99.90;;;;;;5071747;28;20100;-78
2022/01/01 03:12:49;;;;;;;30.63;10.50;;;13.00;99.90;;;;;;5071853;28;20458;-78
2022/01/01 03:15:14;;;;;;;26.67;10.35;;;13.00;99.90;;;;;;5071847;28;20096;-79
2022/01/01 03:17:40;;;;;;;30.27;10.07;;;13.00;99.90;;;;;;5071788;28;20542;-79
2022/01/01 03:20:06;;;;;;;23.55;9.70;;;13.00;99.90;;;;;;5033336;28;1104727;-78
2022/01/01 03:22:32;;;;;;;26.58;9.35;;;12.90;99.90;;;;;;5071179;28;20090;-79
2022/01/01 03:24:58;;;;;;;22.45;9.52;;;12.70;99.90;;;;;;5072521;28;20020;-78
2022/01/01 03:27:23;;;;;;;19.80;8.82;;;12.80;99.90;;;;;;5072385;28;20400;-77
2022/01/01 03:29:49;;;;;;;19.85;9.70;;;12.90;99.90;;;;;;5072539;28;20025;-79
2022/01/01 03:32:15;;;;;;;29.40;10.15;;;12.90;99.90;;;;;;5072661;28;20112;-77
2022/01/01 03:34:42;;;;;;;21.95;9.40;;;12.90;99.90;;;;;;5058634;28;20017;-77
2022/01/01 03:37:08;;;;;;;24.65;9.20;;;12.90;99.90;;;;;;5052364;28;20021;-77
2022/01/01 03:39:34;;;;;;;26.13;9.77;;;12.80;99.90;;;;;;5052187;28;20029;-77
2022/01/01 03:41:59;;;;;;;26.95;9.85;;;12.90;99.90;;;;;;5052674;28;20040;-77
2022/01/01 03:44:25;;;;;;;20.77;8.48;;;12.80;99.90;;;;;;5052219;28;20147;-77
2022/01/01 03:46:53;;;;;;;23.13;9.13;;;12.80;99.90;;;;;;5052543;28;20112;-76
2022/01/01 03:49:19;;;;;;;26.20;9.10;;;12.70;99.90;;;;;;5052011;28;20040;-76
2022/01/01 03:51:45;;;;;;;24.42;8.57;;;12.80;99.90;;;;;;5051029;28;20017;-76
2022/01/01 03:54:12;;;;;;;20.15;7.72;;;12.60;99.90;;;;;;5052319;28;20052;-78
2022/01/01 03:56:38;;;;;;;22.30;8.45;;;12.50;99.90;;;;;;5052366;28;20041;-77
2022/01/01 03:59:04;;;;;;;20.42;8.60;;;12.50;99.90;;;;;;5052125;28;20079;-77
2022/01/01 04:01:30;;;;;;;23.25;7.65;;;12.60;99.90;;;;;;5052115;28;20473;-77
2022/01/01 04:03:55;;;;;;;21.25;7.95;;;12.70;99.90;;;;;;5051874;28;20036;-77
2022/01/01 04:06:21;;;;;;;21.08;8.70;;;12.70;99.90;;;;;;5052213;28;20075;-77
2022/01/01 04:08:47;;;;;;;26.38;8.32;;;12.60;99.90;;;;;;5056682;28;20021;-77
2022/01/01 04:11:12;;;;;;;19.20;8.38;;;12.50;99.90;;;;;;5072248;28;20028;-76
2022/01/01 04:13:38;;;;;;;18.73;7.88;;;12.40;99.90;;;;;;5070676;28;20035;-76
2022/01/01 04:16:04;;;;;;;21.42;8.13;;;12.60;99.90;;;;;;5072297;28;20033;-78
2022/01/01 04:18:38;;;;;;;21.02;7.65;;;12.80;99.90;;;;;;5070304;28;20115;-76
2022/01/01 04:21:08;;;;;;;23.85;8.48;;;12.70;99.90;;;;;;5074785;28;20169;-77
2022/01/01 04:23:35;;;;;;;20.80;8.48;;;12.60;99.90;;;;;;5075612;28;20473;-77
2022/01/01 04:26:01;;;;;;;19.25;7.50;;;12.70;99.90;;;;;;5074167;28;20354;-77
2022/01/01 04:28:26;;;;;;;17.45;6.57;;;12.60;99.90;;;;;;5075485;28;20043;-75
2022/01/01 04:30:52;;;;;;;18.80;7.38;;;12.50;99.90;;;;;;5075680;28;20024;-77
2022/01/01 04:33:18;;;;;;;18.23;6.63;;;12.50;99.90;;;;;;5075257;28;20540;-74
2022/01/01 04:35:43;;;;;;;17.70;7.18;;;12.30;99.90;;;;;;5075268;28;20025;-77
2022/01/01 04:38:22;;;;;;;17.13;7.25;;;12.30;99.90;;;;;;5075536;28;20496;-76
2022/01/01 04:40:47;;;;;;;22.85;7.35;;;12.20;99.90;;;;;;5075228;28;20414;-76
2022/01/01 04:43:13;;;;;;;21.10;7.60;;;12.10;99.90;;;;;;5075423;28;20025;-77
2022/01/01 04:45:39;;;;;;;25.02;8.55;;;12.10;99.90;;;;;;5073652;28;20511;-77
2022/01/01 04:48:04;;;;;;;14.63;7.70;;;12.00;99.90;;;;;;5075333;28;20021;-77
2022/01/01 04:50:31;;;;;;;25.98;8.02;;;12.00;99.90;;;;;;5075322;28;20461;-77
2022/01/01 04:52:57;;;;;;;20.17;7.72;;;12.00;99.90;;;;;;5075084;28;20111;-77
2022/01/01 04:55:24;;;;;;;25.73;8.27;;;11.90;99.90;;;;;;5074974;28;20525;-76
2022/01/01 04:57:49;;;;;;;23.63;8.98;;;12.00;99.90;;;;;;5075101;28;20028;-77
2022/01/01 05:00:15;;;;;;;24.13;7.88;;;11.90;99.90;;;;;;5074338;28;20446;-77
2022/01/01 05:02:41;;;;;;;22.70;8.23;;;11.90;99.90;;;;;;5074793;28;20024;-77
2022/01/01 05:05:07;;;;;;;28.25;8.55;;;11.90;99.90;;;;;;5074765;28;20041;-77
2022/01/01 05:07:33;;;;;;;22.33;8.77;;;11.90;99.90;;;;;;5074827;28;20021;-77
2022/01/01 05:09:59;;;;;;;17.60;7.72;;;11.80;99.90;;;;;;5074581;28;20032;-74
2022/01/01 05:12:25;;;;;;;18.58;7.72;;;11.80;99.90;;;;;;5074650;28;20020;-75
2022/01/01 05:14:51;;;;;;;20.85;7.55;;;11.80;99.90;;;;;;5074523;28;20045;-73
2022/01/01 05:17:18;;;;;;;20.55;7.47;;;12.00;99.90;;;;;;5074751;28;20078;-76
2022/01/01 05:19:44;;;;;;;25.05;8.65;;;12.10;99.90;;;;;;5074451;28;20127;-73
2022/01/01 05:22:10;;;;;;;19.25;8.30;;;12.20;99.90;;;;;;5074460;28;20111;-73
2022/01/01 05:24:35;;;;;;;20.27;8.07;;;12.10;99.90;;;;;;5073125;28;20385;-76
2022/01/01 05:27:01;;;;;;;21.10;8.57;;;12.00;99.90;;;;;;5074554;28;20020;-76
2022/01/01 05:29:27;;;;;;;21.45;7.97;;;11.90;99.90;;;;;;5074070;28;20481;-76
2022/01/01 05:31:53;;;;;;;22.77;8.68;;;12.00;99.90;;;;;;5072113;28;20029;-77
2022/01/01 05:34:18;;;;;;;17.02;7.82;;;12.00;99.90;;;;;;5074295;28;20025;-77
2022/01/01 05:36:44;;;;;;;22.25;8.60;;;12.00;99.90;;;;;;5074227;28;20033;-77
2022/01/01 05:39:10;;;;;;;17.98;8.75;;;12.10;99.90;;;;;;5074263;28;20043;-77
2022/01/01 05:41:35;;;;;;;23.77;9.48;;;12.00;99.90;;;;;;5074010;28;20465;-77
2022/01/01 05:44:01;;;;;;;24.63;8.93;;;12.00;99.90;;;;;;5073843;28;20031;-77
2022/01/01 05:46:29;;;;;;;24.05;9.05;;;12.00;99.90;;;;;;5072708;28;20067;-76
2022/01/01 05:48:55;;;;;;;20.42;9.98;;;12.00;99.90;;;;;;5074133;28;20032;-78
2022/01/01 05:51:21;;;;;;;24.60;9.80;;;12.00;99.90;;;;;;5073962;28;20040;-76
2022/01/01 05:53:46;;;;;;;26.92;9.93;;;12.00;99.90;;;;;;5073560;28;20024;-75
2022/01/01 05:56:12;;;;;;;21.15;10.00;;;12.00;99.90;;;;;;5073879;28;20044;-76
2022/01/01 05:58:38;;;;;;;21.67;10.70;;;12.10;99.90;;;;;;5073484;28;20025;-76
2022/01/01 06:01:03;;;;;;;31.63;10.23;;;12.20;99.90;;;;;;5073715;28;20052;-76
2022/01/01 06:03:31;;;;;;;29.70;10.55;;;12.10;99.90;;;;;;5073562;28;20396;-76
2022/01/01 06:05:57;;;;;;;23.27;9.63;;;12.10;99.90;;;;;;5072374;28;20492;-76
2022/01/01 06:08:24;;;;;;;27.30;10.05;;;12.00;99.90;;;;;;5072574;28;20033;-76
2022/01/01 06:10:50;;;;;;;22.27;10.70;;;12.10;99.90;;;;;;5073663;28;20025;-78
2022/01/01 06:13:15;;;;;;;25.38;10.60;;;12.00;99.90;;;;;;5073175;28;20039;-76
2022/01/01 06:15:43;;;;;;;33.45;11.57;;;12.00;99.90;;;;;;5073242;28;20031;-76
2022/01/01 06:18:08;;;;;;;24.75;12.20;;;12.00;99.90;;;;;;5073360;28;20032;-76
2022/01/01 06:20:34;;;;;;;30.35;12.10;;;12.10;99.90;;;;;;5073148;28;20056;-76
2022/01/01 06:23:02;;;;;;;24.10;11.10;;;12.10;99.90;;;;;;5072101;28;20016;-76
2022/01/01 06:25:28;;;;;;;26.08;12.18;;;12.10;99.90;;;;;;5073137;28;20036;-76
2022/01/01 06:27:53;;;;;;;22.15;11.27;;;12.10;99.90;;;;;;5072773;28;20021;-77
2022/01/01 06:30:19;;;;;;;29.65;13.27;;;12.10;99.90;;;;;;5073249;28;20086;-78
2022/01/01 06:32:47;;;;;;;27.52;12.23;;;12.10;99.90;;;;;;5073151;28;20393;-78
2022/01/01 06:35:12;;;;;;;29.70;12.50;;;11.90;99.90;;;;;;5073285;28;20020;-78
2022/01/01 06:37:38;;;;;;;28.95;13.13;;;11.90;99.90;;;;;;5073021;28;20029;-78
2022/01/01 06:40:04;;;;;;;27.58;12.23;;;11.80;99.90;;;;;;5073138;28;20032;-78
2022/01/01 06:42:30;;;;;;;24.70;12.70;;;11.80;99.90;;;;;;5072558;28;20464;-78
2022/01/01 06:44:56;;;;;;;31.98;13.60;;;11.70;99.90;;;;;;5065823;28;20020;-78
2022/01/01 06:47:21;;;;;;;33.85;14.38;;;11.70;99.90;;;;;;5052909;28;20407;-78
2022/01/01 06:49:47;;;;;;;25.23;15.35;;;11.60;99.90;;;;;;5052741;28;20398;-78
2022/01/01 06:52:13;;;;;;;30.70;15.15;;;11.60;99.90;;;;;;5052989;28;20049;-78
2022/01/01 06:54:38;;;;;;;29.23;14.63;;;11.60;99.90;;;;;;5051591;28;20426;-78
2022/01/01 06:57:04;;;;;;;34.00;15.90;;;11.60;99.90;;;;;;5052644;28;20044;-78
2022/01/01 06:59:30;;;;;;;32.58;14.52;;;11.60;99.90;;;;;;5051481;28;20039;-78
2022/01/01 07:01:55;;;;;;;34.47;16.02;;;11.50;99.90;;;;;;5052954;28;20041;-79
2022/01/01 07:04:21;;;;;;;29.05;16.92;;;11.50;99.90;;;;;;5051509;28;20056;-78
2022/01/01 07:06:48;;;;;;;34.42;17.27;;;11.40;99.90;;;;;;5052731;28;20178;-79
2022/01/01 07:09:14;;;;;;;36.83;18.35;;;11.40;99.90;;;;;;5060928;28;20044;-78
2022/01/01 07:11:42;;;;;;;42.03;18.90;;;11.40;99.90;;;;;;5072494;28;20035;-77
2022/01/01 07:14:09;;;;;;;38.05;18.83;;;11.30;99.90;;;;;;5071450;28;20369;-78
2022/01/01 07:16:34;;;;;;;42.33;21.13;;;11.30;99.90;;;;;;5072700;28;20111;-77
2022/01/01 07:19:00;;;;;;;43.83;21.30;;;11.30;99.90;;;;;;5071158;28;20552;-78
2022/01/01 07:21:26;;;;;;;37.22;20.90;;;11.30;99.90;;;;;;5072729;28;20036;-79
2022/01/01 07:23:51;;;;;;;41.58;21.40;;;11.30;99.90;;;;;;5072353;28;20067;-79
2022/01/01 07:26:17;;;;;;;38.72;21.92;;;11.30;99.90;;;;;;5072326;28;20029;-76
2022/01/01 07:28:44;;;;;;;46.90;23.13;;;11.20;99.90;;;;;;5072534;28;20028;-79
2022/01/01 07:31:10;;;;;;;43.35;23.15;;;11.20;99.90;;;;;;5072591;28;20035;-78
2022/01/01 07:33:36;;;;;;;40.17;23.77;;;11.20;99.90;;;;;;5072459;28;20032;-78
2022/01/01 07:36:01;;;;;;;41.72;23.50;;;11.20;99.90;;;;;;5072542;28;20025;-78
2022/01/01 07:38:27;;;;;;;42.38;25.98;;;11.20;99.90;;;;;;5072313;28;20025;-77
2022/01/01 07:40:55;;;;;;;52.88;30.42;;;11.20;99.90;;;;;;5072205;28;20485;-77
2022/01/01 07:43:22;;;;;;;57.58;29.50;;;11.20;99.90;;;;;;5072470;28;20362;-78
2022/01/01 07:45:48;;;;;;;55.85;28.40;;;11.40;99.90;;;;;;5072377;28;20032;-77
2022/01/01 07:48:14;;;;;;;45.70;25.23;;;11.20;99.90;;;;;;5072528;28;20024;-78
2022/01/01 07:50:41;;;;;;;56.55;30.20;;;11.20;99.90;;;;;;5072339;28;20032;-77
2022/01/01 07:53:08;;;;;;;56.42;29.55;;;11.30;99.90;;;;;;5072438;28;20067;-76
2022/01/01 07:55:33;;;;;;;57.55;28.60;;;11.30;99.90;;;;;;5074265;28;20024;-78
2022/01/01 07:57:59;;;;;;;54.22;28.27;;;11.40;99.90;;;;;;5076167;28;20107;-77
2022/01/01 08:00:25;;;;;;;56.40;29.35;;;11.40;99.90;;;;;;5076048;28;20093;-76
2022/01/01 08:02:50;;;;;;;59.78;32.25;;;11.30;99.90;;;;;;5074748;28;20025;-78
2022/01/01 08:05:17;;;;;;;54.55;29.30;;;11.30;99.90;;;;;;5076313;28;20047;-78
2022/01/01 08:07:43;;;;;;;58.10;29.70;;;11.40;99.90;;;;;;5076035;28;20422;-76
2022/01/01 08:10:09;;;;;;;66.90;33.97;;;11.30;99.90;;;;;;5075442;28;20109;-78
2022/01/01 08:12:36;;;;;;;56.47;31.70;;;11.30;99.90;;;;;;5075835;28;20032;-77
2022/01/01 08:15:05;;;;;;;54.95;31.15;;;11.40;99.90;;;;;;5075685;28;20025;-77
2022/01/01 08:17:31;;;;;;;63.08;30.42;;;11.40;99.90;;;;;;5074578;28;20028;-77
2022/01/01 08:20:00;;;;;;;58.97;31.90;;;11.40;99.90;;;;;;5075226;28;20560;-77
2022/01/01 08:22:26;;;;;;;50.40;27.25;;;11.40;99.90;;;;;;5074561;28;20086;-77
2022/01/01 08:24:52;;;;;;;57.75;29.15;;;11.40;99.90;;;;;;5075209;28;20549;-77
2022/01/01 08:27:18;;;;;;;59.10;30.02;;;11.40;99.90;;;;;;5075478;28;20047;-76
2022/01/01 08:29:43;;;;;;;61.05;30.30;;;11.40;99.90;;;;;;5075360;28;20029;-76
2022/01/01 08:32:10;;;;;;;68.80;29.77;;;11.40;99.90;;;;;;5075475;28;20511;-75
2022/01/01 08:34:36;;;;;;;57.97;28.73;;;11.40;99.90;;;;;;5075450;28;20113;-76
2022/01/01 08:37:02;;;;;;;53.67;28.63;;;11.40;99.90;;;;;;5075591;28;20074;-76
2022/01/01 08:39:28;;;;;;;58.42;28.13;;;11.40;99.90;;;;;;5074761;28;20043;-76
2022/01/01 08:41:54;;;;;;;61.50;29.17;;;11.40;99.90;;;;;;5075412;28;20036;-76
2022/01/01 08:44:19;;;;;;;51.20;28.60;;;11.40;99.90;;;;;;5075308;28;20013;-76
2022/01/01 08:46:45;;;;;;;49.42;28.40;;;11.40;99.90;;;;;;5075546;28;20066;-77
2022/01/01 08:49:12;;;;;;;57.70;28.95;;;11.50;99.90;;;;;;5075505;28;20027;-77
2022/01/01 08:51:42;;;;;;;58.30;28.23;;;11.50;99.90;;;;;;5075094;28;20089;-77
2022/01/01 08:54:07;;;;;;;48.80;27.92;;;11.50;99.90;;;;;;5074898;28;20029;-78
2022/01/01 08:56:33;;;;;;;52.50;27.13;;;11.50;99.90;;;;;;5073841;28;20465;-78
2022/01/01 08:58:59;;;;;;;56.47;26.10;;;11.40;99.90;;;;;;5075089;28;20032;-76
2022/01/01 09:01:26;;;;;;;52.53;28.38;;;11.50;99.90;;;;;;5075019;28;20032;-76
2022/01/01 09:03:51;;;;;;;46.22;26.48;;;11.50;99.90;;;;;;5074792;28;20021;-76
2022/01/01 09:06:17;;;;;;;47.92;25.98;;;11.50;99.90;;;;;;5074692;28;20032;-74
2022/01/01 09:08:43;;;;;;;61.25;26.55;;;11.50;99.90;;;;;;5074625;28;20021;-73
2022/01/01 09:11:10;;;;;;;48.28;25.38;;;11.50;99.90;;;;;;5074825;28;20484;-76
2022/01/01 09:13:41;;;;;;;42.85;23.20;;;11.50;99.90;;;;;;5074621;28;20013;-76
2022/01/01 09:16:08;;;;;;;47.75;24.30;;;11.60;99.90;;;;;;5074663;28;20037;-75
2022/01/01 09:18:34;;;;;;;46.10;22.30;;;11.60;99.90;;;;;;5073288;28;20034;-75
2022/01/01 09:21:00;;;;;;;35.88;21.38;;;11.60;99.90;;;;;;5074563;28;20047;-76
2022/01/01 09:23:26;;;;;;;37.30;20.95;;;11.60;99.90;;;;;;5074323;28;20111;-76
2022/01/01 09:25:51;;;;;;;36.08;20.70;;;11.50;99.90;;;;;;5074268;28;20041;-78
2022/01/01 09:28:17;;;;;;;42.03;21.17;;;11.50;99.90;;;;;;5074426;28;20025;-75
2022/01/01 09:30:43;;;;;;;44.08;20.90;;;11.50;99.90;;;;;;5074278;28;20571;-76
2022/01/01 09:33:10;;;;;;;39.75;21.10;;;11.50;99.90;;;;;;5074448;28;20028;-76
2022/01/01 09:35:35;;;;;;;36.67;22.05;;;11.50;99.90;;;;;;5073834;28;20021;-77
2022/01/01 09:38:01;;;;;;;40.38;21.02;;;11.50;99.90;;;;;;5074341;28;20031;-79
2022/01/01 09:40:28;;;;;;;38.42;20.10;;;11.50;99.90;;;;;;5074248;28;20051;-76
2022/01/01 09:42:55;;;;;;;32.45;19.83;;;11.60;99.90;;;;;;5074054;28;20366;-77
2022/01/01 09:45:21;;;;;;;37.83;20.55;;;11.50;99.90;;;;;;5074148;28;20119;-78
2022/01/01 09:47:47;;;;;;;35.38;20.58;;;11.50;99.90;;;;;;5073933;28;20166;-76
2022/01/01 09:50:13;;;;;;;34.63;18.88;;;11.60;99.90;;;;;;5072645;28;20023;-76
2022/01/01 09:52:39;;;;;;;34.08;18.88;;;11.60;99.90;;;;;;5072746;28;20040;-76
2022/01/01 09:55:05;;;;;;;28.67;16.15;;;11.60;99.90;;;;;;5073756;28;20496;-76
2022/01/01 09:57:31;;;;;;;29.88;17.42;;;11.70;99.90;;;;;;5073814;28;20028;-76
2022/01/01 09:59:57;;;;;;;26.95;16.00;;;11.70;99.90;;;;;;5073733;28;20036;-76
2022/01/01 10:02:23;;;;;;;29.50;16.85;;;11.70;99.90;;;;;;5073712;28;20419;-75
2022/01/01 10:04:51;;;;;;;31.55;16.50;;;11.60;99.90;;;;;;5073609;28;20036;-76
2022/01/01 10:07:26;;;;;;;28.65;16.55;;;11.60;99.90;;;;;;5073348;28;20021;-76
2022/01/01 10:09:51;;;;;;;27.75;16.52;;;11.70;99.90;;;;;;5073424;28;20115;-76
2022/01/01 10:12:18;;;;;;;27.02;15.88;;;11.90;99.90;;;;;;5073406;28;20079;-78
2022/01/01 10:14:48;;;;;;;26.77;16.58;;;11.90;99.90;;;;;;5072268;28;20081;-79
2022/01/01 10:17:19;;;;;;;23.17;15.43;;;11.90;99.90;;;;;;5072850;28;20028;-77
2022/01/01 10:19:48;;;;;;;22.60;14.80;;;11.90;99.90;;;;;;5071745;28;20059;-77
2022/01/01 10:22:20;;;;;;;26.10;14.82;;;12.00;99.90;;;;;;5072151;28;20032;-77
2022/01/01 10:27:43;;;;;;;19.73;14.13;;;12.00;99.90;;;;;;5073069;28;20028;-76
2022/01/01 10:30:32;;;;;;;25.63;12.95;;;12.10;99.90;;;;;;5073252;28;20039;-77
2022/01/01 10:33:16;;;;;;;20.65;12.40;;;12.00;99.90;;;;;;5073045;28;20098;-78
2022/01/01 10:35:44;;;;;;;18.75;12.15;;;12.00;99.90;;;;;;5071464;28;20477;-78
2022/01/01 10:38:15;;;;;;;20.42;12.80;;;12.00;99.90;;;;;;5072807;28;20021;-77
2022/01/01 10:40:42;;;;;;;15.07;10.55;;;12.20;99.90;;;;;;5073101;28;20050;-77
2022/01/01 10:43:08;;;;;;;15.20;9.77;;;12.30;99.90;;;;;;5071766;28;20046;-77
2022/01/01 10:45:40;;;;;;;18.42;10.07;;;12.70;99.90;;;;;;5071859;28;20444;-79
2022/01/01 10:48:40;;;;;;;13.25;9.65;;;13.00;99.90;;;;;;5072506;28;20028;-77
2022/01/01 10:51:07;;;;;;;13.93;8.98;;;13.30;99.90;;;;;;5072867;28;20033;-75
2022/01/01 10:53:34;;;;;;;16.55;9.80;;;13.10;99.90;;;;;;5072904;28;20024;-77
2022/01/01 10:56:02;;;;;;;13.07;8.70;;;12.70;99.90;;;;;;5073344;28;20085;-77
2022/01/01 10:58:34;;;;;;;17.27;9.23;;;12.80;99.90;;;;;;5072870;28;20032;-77
2022/01/01 11:01:01;;;;;;;15.00;9.50;;;12.80;99.90;;;;;;5072626;28;20114;-80
2022/01/01 11:03:28;;;;;;;14.43;9.13;;;12.80;99.90;;;;;;5072200;28;20037;-76
2022/01/01 11:06:17;;;;;;;13.35;8.45;;;12.80;99.90;;;;;;5054929;28;20029;-77
2022/01/01 11:08:45;;;;;;;11.60;8.07;;;12.90;99.90;;;;;;5072420;28;20048;-77
2022/01/01 11:11:12;;;;;;;13.35;8.98;;;13.10;99.90;;;;;;5072749;28;20032;-77
2022/01/01 11:13:39;;;;;;;13.98;6.97;;;13.50;99.90;;;;;;5071378;28;20031;-77
2022/01/01 11:16:06;;;;;;;9.75;6.35;;;13.50;99.90;;;;;;5071495;28;20093;-79
2022/01/01 11:18:34;;;;;;;8.85;6.25;;;13.80;99.90;;;;;;5072024;28;20116;-77
2022/01/01 11:21:04;;;;;;;9.48;5.47;;;14.00;99.90;;;;;;5072637;28;20033;-77
2022/01/01 11:23:31;;;;;;;9.30;6.03;;;14.00;99.90;;;;;;5072558;28;20193;-76
2022/01/01 11:25:57;;;;;;;8.07;5.45;;;14.30;99.90;;;;;;5072470;28;20378;-77
2022/01/01 11:28:23;;;;;;;9.43;5.25;;;14.90;99.90;;;;;;5072295;28;20116;-77
2022/01/01 11:31:12;;;;;;;9.50;5.22;;;14.50;99.90;;;;;;5075529;28;20113;-77
2022/01/01 11:33:41;;;;;;;6.65;4.43;;;14.60;99.90;;;;;;5076065;28;20033;-79
2022/01/01 11:36:18;;;;;;;7.10;4.38;;;14.80;99.90;;;;;;5076566;28;20029;-77
2022/01/01 11:38:44;;;;;;;8.85;5.50;;;14.80;99.90;;;;;;5076427;28;20165;-78
2022/01/01 11:41:12;;;;;;;7.30;4.43;;;15.10;99.90;;;;;;5075071;28;20119;-77
2022/01/01 11:43:46;;;;;;;9.93;4.95;;;15.10;99.90;;;;;;5076869;28;20016;-78
2022/01/01 11:46:17;;;;;;;7.07;4.53;;;15.20;99.90;;;;;;5075970;28;20469;-77
2022/01/01 11:48:46;;;;;;;6.55;3.85;;;15.40;99.90;;;;;;5076251;28;20060;-77
2022/01/01 11:51:29;;;;;;;10.05;4.97;;;15.00;99.90;;;;;;5076211;28;20558;-78
2022/01/01 11:54:18;;;;;;;9.15;4.60;;;14.80;99.90;;;;;;5076124;28;20025;-77
2022/01/01 11:56:48;;;;;;;7.05;4.60;;;14.90;99.90;;;;;;5076139;28;20036;-77
2022/01/01 11:59:37;;;;;;;5.97;3.83;;;14.60;99.90;;;;;;5076001;28;20040;-78
2022/01/01 12:02:17;;;;;;;5.97;3.78;;;14.40;99.90;;;;;;5075681;28;20504;-77
2022/01/01 12:04:45;;;;;;;8.95;3.95;;;14.40;99.90;;;;;;5075866;28;20062;-77
2022/01/01 12:07:12;;;;;;;6.78;3.70;;;14.50;99.90;;;;;;5075835;28;20028;-77
2022/01/01 12:10:01;;;;;;;7.63;4.00;;;14.80;99.90;;;;;;5075636;28;20078;-76
2022/01/01 12:12:49;;;;;;;5.03;3.30;;;15.00;99.90;;;;;;5075685;28;20052;-78
2022/01/01 12:15:23;;;;;;;7.72;3.90;;;15.30;99.90;;;;;;5075444;28;20519;-77
2022/01/01 12:17:50;;;;;;;8.05;3.97;;;15.20;99.90;;;;;;5075781;28;20024;-78
2022/01/01 12:20:19;;;;;;;7.32;3.78;;;15.30;99.90;;;;;;5074129;28;20139;-78
2022/01/01 12:22:47;;;;;;;5.70;3.50;;;14.60;99.90;;;;;;5075630;28;20111;-78
2022/01/01 12:25:26;;;;;;;10.70;3.65;;;14.30;99.90;;;;;;5075647;28;20091;-77
2022/01/01 12:27:55;;;;;;;6.57;4.10;;;14.30;99.90;;;;;;5075543;28;20098;-77
2022/01/01 12:30:32;;;;;;;11.07;4.35;;;14.10;99.90;;;;;;5075010;28;20142;-78
2022/01/01 12:32:58;;;;;;;6.05;3.40;;;14.30;99.90;;;;;;5075523;28;20120;-77
2022/01/01 12:35:54;;;;;;;4.47;3.30;;;14.20;99.90;;;;;;5075365;28;20092;-77
2022/01/01 12:38:23;;;;;;;4.88;3.10;;;14.10;99.90;;;;;;5074865;28;20037;-77
2022/01/01 12:41:00;;;;;;;8.40;3.30;;;14.00;99.90;;;;;;5074777;28;20042;-76